createdAt,value
2023-05-20T00:01:38.158Z,3.87
2023-05-20T00:04:06.380Z,4.73
2023-05-20T00:06:34.922Z,4.80
2023-05-20T00:09:03.347Z,3.30
2023-05-20T00:11:31.260Z,3.03
2023-05-20T00:13:59.057Z,3.37
2023-05-20T00:16:26.883Z,4.13
2023-05-20T00:18:56.783Z,3.57
2023-05-20T00:21:24.642Z,3.90
2023-05-20T00:23:52.467Z,3.60
2023-05-20T00:26:21.348Z,3.43
2023-05-20T00:28:49.338Z,4.43
2023-05-20T00:31:17.188Z,3.93
2023-05-20T00:33:44.986Z,4.73
2023-05-20T00:36:14.163Z,3.93
2023-05-20T00:38:41.985Z,3.70
2023-05-20T00:41:09.762Z,5.87
2023-05-20T00:43:37.571Z,3.20
2023-05-20T00:46:05.764Z,5.20
2023-05-20T00:48:41.067Z,3.77
2023-05-20T00:51:08.929Z,3.30
2023-05-20T00:53:38.281Z,4.30
2023-05-20T00:56:06.994Z,6.07
2023-05-20T00:58:36.676Z,3.43
2023-05-20T01:01:04.716Z,4.90
2023-05-20T01:03:32.833Z,4.67
2023-05-20T01:06:01.033Z,3.87
2023-05-20T01:08:29.516Z,3.83
2023-05-20T01:11:04.790Z,4.20
2023-05-20T01:16:12.874Z,3.60
2023-05-20T01:18:43.570Z,4.57
2023-05-20T01:21:14.703Z,4.73
2023-05-20T01:23:44.354Z,3.70
2023-05-20T01:26:13.643Z,3.50
2023-05-20T01:28:44.501Z,4.33
2023-05-20T01:31:19.612Z,4.30
2023-05-20T01:33:51.659Z,4.60
2023-05-20T01:36:21.096Z,4.60
2023-05-20T01:38:51.877Z,3.57
2023-05-20T01:41:20.733Z,3.90
2023-05-20T01:43:48.878Z,4.43
2023-05-20T01:46:17.207Z,4.43
2023-05-20T01:48:45.244Z,4.27
2023-05-20T01:51:13.175Z,4.67
2023-05-20T01:53:41.094Z,4.50
2023-05-20T01:56:10.376Z,4.67
2023-05-20T01:58:38.261Z,4.30
2023-05-20T02:01:06.423Z,4.60
2023-05-20T02:03:34.748Z,3.80
2023-05-20T02:06:02.768Z,4.87
2023-05-20T02:08:30.773Z,4.87
2023-05-20T02:10:58.676Z,4.47
2023-05-20T02:13:27.972Z,4.40
2023-05-20T02:15:55.922Z,4.20
2023-05-20T02:18:26.435Z,4.10
2023-05-20T02:20:54.421Z,4.73
2023-05-20T02:23:22.372Z,3.83
2023-05-20T02:25:50.601Z,4.37
2023-05-20T02:28:18.503Z,5.53
2023-05-20T02:30:48.013Z,5.43
2023-05-20T02:33:16.045Z,4.00
2023-05-20T02:35:43.983Z,4.53
2023-05-20T02:38:12.134Z,4.73
2023-05-20T02:40:40.181Z,4.40
2023-05-20T02:43:08.100Z,4.57
2023-05-20T02:45:36.518Z,4.57
2023-05-20T02:48:06.228Z,4.30
2023-05-20T02:50:34.192Z,4.20
2023-05-20T02:53:02.103Z,4.53
2023-05-20T02:55:30.013Z,4.57
2023-05-20T02:57:57.977Z,4.23
2023-05-20T03:00:28.611Z,4.23
2023-05-20T03:02:56.532Z,4.57
2023-05-20T03:05:27.386Z,4.03
2023-05-20T03:07:55.400Z,5.20
2023-05-20T03:10:23.412Z,4.17
2023-05-20T03:12:51.333Z,6.17
2023-05-20T03:15:19.357Z,5.47
2023-05-20T03:17:47.293Z,4.23
2023-05-20T03:20:16.650Z,4.07
2023-05-20T03:22:45.982Z,3.90
2023-05-20T03:25:13.954Z,4.13
2023-05-20T03:27:42.896Z,4.57
2023-05-20T03:30:11.532Z,5.57
2023-05-20T03:32:39.559Z,5.37
2023-05-20T03:35:08.684Z,4.77
2023-05-20T03:37:36.793Z,5.87
2023-05-20T03:40:07.749Z,5.33
2023-05-20T03:42:35.695Z,5.70
2023-05-20T03:45:03.772Z,5.50
2023-05-20T03:47:31.749Z,6.80
2023-05-20T03:49:59.688Z,5.60
2023-05-20T03:52:27.640Z,5.30
2023-05-20T03:54:55.854Z,6.03
2023-05-20T03:57:25.269Z,6.90
2023-05-20T03:59:53.342Z,5.77
2023-05-20T04:02:21.666Z,7.27
2023-05-20T04:04:52.785Z,6.30
2023-05-20T04:07:20.743Z,5.73
2023-05-20T04:09:48.663Z,6.00
2023-05-20T04:12:19.305Z,6.77
2023-05-20T04:14:50.063Z,5.90
2023-05-20T04:17:18.067Z,6.77
2023-05-20T04:19:46.131Z,6.77
2023-05-20T04:22:14.070Z,5.70
2023-05-20T04:24:41.982Z,7.37
2023-05-20T04:27:11.100Z,6.17
2023-05-20T04:29:41.443Z,8.73
2023-05-20T04:32:11.481Z,6.70
2023-05-20T04:34:39.549Z,6.00
2023-05-20T04:37:07.731Z,6.53
2023-05-20T04:39:36.271Z,7.20
2023-05-20T04:42:04.750Z,5.80
2023-05-20T04:44:32.790Z,7.77
2023-05-20T04:47:00.970Z,7.07
2023-05-20T04:49:30.283Z,7.77
2023-05-20T04:51:58.523Z,7.83
2023-05-20T04:54:26.472Z,6.53
2023-05-20T04:56:54.380Z,7.97
2023-05-20T04:59:22.356Z,8.67
2023-05-20T05:01:50.283Z,6.20
2023-05-20T05:04:18.248Z,8.80
2023-05-20T05:06:49.077Z,8.43
2023-05-20T05:09:16.979Z,6.50
2023-05-20T05:11:44.906Z,8.47
2023-05-20T05:14:12.873Z,8.00
2023-05-20T05:16:40.786Z,7.40
2023-05-20T05:19:08.798Z,7.77
2023-05-20T05:21:36.797Z,6.87
2023-05-20T05:24:06.273Z,6.80
2023-05-20T05:26:34.161Z,8.00
2023-05-20T05:29:02.084Z,8.60
2023-05-20T05:31:30.005Z,7.60
2023-05-20T05:33:57.924Z,9.33
2023-05-20T05:36:26.470Z,7.77
2023-05-20T05:38:54.391Z,6.80
2023-05-20T05:41:23.651Z,6.80
2023-05-20T05:43:51.574Z,8.13
2023-05-20T05:46:19.534Z,7.03
2023-05-20T05:48:49.153Z,8.53
2023-05-20T05:51:17.077Z,7.47
2023-05-20T05:53:45.142Z,7.77
2023-05-20T05:56:13.053Z,8.03
2023-05-20T05:58:42.317Z,7.93
2023-05-20T06:01:11.133Z,7.20
2023-05-20T06:03:39.170Z,8.20
2023-05-20T06:06:07.219Z,7.40
2023-05-20T06:08:35.130Z,8.07
2023-05-20T06:11:03.038Z,8.80
2023-05-20T06:13:30.976Z,7.60
2023-05-20T06:16:00.228Z,7.17
2023-05-20T06:18:28.412Z,6.60
2023-05-20T06:20:56.924Z,7.57
2023-05-20T06:23:24.932Z,7.83
2023-05-20T06:25:53.195Z,7.43
2023-05-20T06:28:21.799Z,8.03
2023-05-20T06:30:49.894Z,7.93
2023-05-20T06:33:20.245Z,7.60
2023-05-20T06:35:48.440Z,8.43
2023-05-20T06:38:16.423Z,6.83
2023-05-20T06:40:44.348Z,8.07
2023-05-20T06:43:12.311Z,6.97
2023-05-20T06:45:40.256Z,6.83
2023-05-20T06:48:09.211Z,8.03
2023-05-20T06:50:38.834Z,8.17
2023-05-20T06:53:06.838Z,6.77
2023-05-20T06:55:34.996Z,7.93
2023-05-20T06:58:03.105Z,7.33
2023-05-20T07:00:31.048Z,7.13
2023-05-20T07:02:59.067Z,7.10
2023-05-20T07:05:28.856Z,7.00
2023-05-20T07:07:58.227Z,7.43
2023-05-20T07:10:26.341Z,6.30
2023-05-20T07:12:54.277Z,7.33
2023-05-20T07:15:22.324Z,6.47
2023-05-20T07:17:50.295Z,6.97
2023-05-20T07:20:18.519Z,7.60
2023-05-20T07:22:47.697Z,8.00
2023-05-20T07:25:17.421Z,7.87
2023-05-20T07:27:46.154Z,8.43
2023-05-20T07:30:14.262Z,7.63
2023-05-20T07:32:42.246Z,7.83
2023-05-20T07:35:10.538Z,6.30
2023-05-20T07:37:38.478Z,7.40
2023-05-20T07:40:08.439Z,8.73
2023-05-20T07:42:38.037Z,7.93
2023-05-20T07:45:06.702Z,6.80
2023-05-20T07:47:34.677Z,6.47
2023-05-20T07:50:02.646Z,8.97
2023-05-20T07:52:32.166Z,8.60
2023-05-20T07:55:07.289Z,7.40
2023-05-20T07:57:35.197Z,6.47
2023-05-20T08:00:06.097Z,6.63
2023-05-20T08:02:34.069Z,6.50
2023-05-20T08:05:02.057Z,7.10
2023-05-20T08:07:29.948Z,6.60
2023-05-20T08:09:58.411Z,7.77
2023-05-20T08:12:26.382Z,7.30
2023-05-20T08:14:55.276Z,6.70
2023-05-20T08:17:24.511Z,7.43
2023-05-20T08:19:52.445Z,9.40
2023-05-20T08:22:20.547Z,7.10
2023-05-20T08:24:48.511Z,7.03
2023-05-20T08:27:16.434Z,6.43
2023-05-20T08:29:46.034Z,7.93
2023-05-20T08:32:14.027Z,8.30
2023-05-20T08:34:43.681Z,7.27
2023-05-20T08:37:11.904Z,7.47
2023-05-20T08:39:39.844Z,6.90
2023-05-20T08:42:08.003Z,7.53
2023-05-20T08:44:36.974Z,6.50
2023-05-20T08:47:07.113Z,6.70
2023-05-20T08:49:35.217Z,6.47
2023-05-20T08:52:04.892Z,6.80
2023-05-20T08:54:43.568Z,6.40
2023-05-20T08:57:14.019Z,6.57
2023-05-20T08:59:44.375Z,6.67
2023-05-20T09:02:12.559Z,6.20
2023-05-20T09:04:40.522Z,6.50
2023-05-20T09:07:09.883Z,6.70
2023-05-20T09:09:37.803Z,6.37
2023-05-20T09:12:06.191Z,6.17
2023-05-20T09:14:34.197Z,6.30
2023-05-20T09:17:02.117Z,6.37
2023-05-20T09:19:30.167Z,7.00
2023-05-20T09:21:58.413Z,6.33
2023-05-20T09:24:27.887Z,6.23
2023-05-20T09:26:56.349Z,6.30
2023-05-20T09:29:24.620Z,7.10
2023-05-20T09:31:53.171Z,7.40
2023-05-20T09:34:22.350Z,7.47
2023-05-20T09:36:51.886Z,6.67
2023-05-20T09:39:26.855Z,6.33
2023-05-20T09:42:06.597Z,7.07
2023-05-20T09:44:36.045Z,6.20
2023-05-20T09:47:04.981Z,6.57
2023-05-20T09:49:34.673Z,6.13
2023-05-20T09:52:04.728Z,6.33
2023-05-20T09:54:33.260Z,6.40
2023-05-20T09:57:04.316Z,6.03
2023-05-20T09:59:33.637Z,6.47
2023-05-20T10:02:01.792Z,6.63
2023-05-20T10:04:31.560Z,6.57
2023-05-20T10:07:20.914Z,7.00
2023-05-20T10:10:04.213Z,6.00
2023-05-20T10:12:39.548Z,6.87
2023-05-20T10:15:17.454Z,6.57
2023-05-20T10:17:54.240Z,5.97
2023-05-20T10:20:22.363Z,7.73
2023-05-20T10:22:57.924Z,6.83
2023-05-20T10:25:27.497Z,7.63
2023-05-20T10:28:10.194Z,6.73
2023-05-20T10:30:39.875Z,6.43
2023-05-20T10:33:09.562Z,6.37
2023-05-20T10:35:48.224Z,7.13
2023-05-20T10:38:16.144Z,6.60
2023-05-20T10:40:44.058Z,6.93
2023-05-20T10:43:14.446Z,6.70
2023-05-20T10:45:53.517Z,5.80
2023-05-20T10:48:24.652Z,6.37
2023-05-20T10:50:56.463Z,6.33
2023-05-20T10:53:33.678Z,6.33
2023-05-20T10:56:02.444Z,5.93
2023-05-20T10:58:40.173Z,6.67
2023-05-20T11:01:10.799Z,7.93
2023-05-20T11:03:41.529Z,6.83
2023-05-20T11:06:15.358Z,6.43
2023-05-20T11:08:44.509Z,7.27
2023-05-20T11:11:12.945Z,6.40
2023-05-20T11:13:42.688Z,6.57
2023-05-20T11:16:11.117Z,6.27
2023-05-20T11:18:39.054Z,5.77
2023-05-20T11:21:07.021Z,6.70
2023-05-20T11:23:34.938Z,6.63
2023-05-20T11:26:03.445Z,6.83
2023-05-20T11:28:33.145Z,6.07
2023-05-20T11:31:02.546Z,6.80
2023-05-20T11:33:31.433Z,5.97
2023-05-20T11:35:59.337Z,6.10
2023-05-20T11:38:27.880Z,7.23
2023-05-20T11:40:57.126Z,5.90
2023-05-20T11:43:25.568Z,6.00
2023-05-20T11:45:59.427Z,6.60
2023-05-20T11:48:29.032Z,6.07
2023-05-20T11:50:59.953Z,7.17
2023-05-20T11:53:29.367Z,6.40
2023-05-20T11:55:58.785Z,7.27
2023-05-20T11:58:28.107Z,6.77
2023-05-20T12:01:05.251Z,7.37
2023-05-20T12:03:43.325Z,6.63
2023-05-20T12:06:13.347Z,7.50
2023-05-20T12:08:41.217Z,7.73
2023-05-20T12:11:09.139Z,6.67
2023-05-20T12:13:37.050Z,7.43
2023-05-20T12:16:05.882Z,7.37
2023-05-20T12:18:34.026Z,8.10
2023-05-20T12:21:03.498Z,6.47
2023-05-20T12:23:34.018Z,9.67
2023-05-20T12:26:02.087Z,7.77
2023-05-20T12:28:30.003Z,7.60
2023-05-20T12:30:57.918Z,7.60
2023-05-20T12:33:25.846Z,7.33
2023-05-20T12:35:53.803Z,6.93
2023-05-20T12:38:23.157Z,5.70
2023-05-20T12:40:51.091Z,5.80
2023-05-20T12:43:19.029Z,8.20
2023-05-20T12:45:46.976Z,7.13
2023-05-20T12:48:14.921Z,7.13
2023-05-20T12:50:42.935Z,7.13
2023-05-20T12:53:10.863Z,6.57
2023-05-20T12:55:40.555Z,6.77
2023-05-20T12:58:09.116Z,6.57
2023-05-20T13:00:37.493Z,6.00
2023-05-20T13:03:05.780Z,7.07
2023-05-20T13:05:33.860Z,6.93
2023-05-20T13:08:01.805Z,6.33
2023-05-20T13:10:29.730Z,6.53
2023-05-20T13:12:59.514Z,6.70
2023-05-20T13:15:27.460Z,6.90
2023-05-20T13:17:55.437Z,6.40
2023-05-20T13:20:23.460Z,6.77
2023-05-20T13:22:51.426Z,6.33
2023-05-20T13:25:19.387Z,7.10
2023-05-20T13:27:47.280Z,6.10
2023-05-20T13:30:16.603Z,5.97
2023-05-20T13:32:44.602Z,5.80
2023-05-20T13:35:12.996Z,6.03
2023-05-20T13:37:40.966Z,6.40
2023-05-20T13:40:10.221Z,5.57
2023-05-20T13:42:38.547Z,6.00
2023-05-20T13:45:07.325Z,5.87
2023-05-20T13:47:36.664Z,5.53
2023-05-20T13:50:05.503Z,5.43
2023-05-20T13:52:33.417Z,6.00
2023-05-20T13:55:01.450Z,6.60
2023-05-20T13:57:29.354Z,6.27
2023-05-20T13:59:57.289Z,7.00
2023-05-20T14:02:25.273Z,6.17
2023-05-20T14:04:54.578Z,7.07
2023-05-20T14:07:22.489Z,6.20
2023-05-20T14:09:50.442Z,6.50
2023-05-20T14:12:18.426Z,6.47
2023-05-20T14:14:46.522Z,7.70
2023-05-20T14:17:14.392Z,6.63
2023-05-20T14:19:42.345Z,6.60
2023-05-20T14:22:14.586Z,6.10
2023-05-20T14:24:42.538Z,5.43
2023-05-20T14:27:11.412Z,5.73
2023-05-20T14:29:39.344Z,5.63
2023-05-20T14:32:08.939Z,5.90
2023-05-20T14:34:36.844Z,6.00
2023-05-20T14:37:09.716Z,6.33
2023-05-20T14:39:39.437Z,7.27
2023-05-20T14:42:07.390Z,6.33
2023-05-20T14:44:35.384Z,5.77
2023-05-20T14:47:04.243Z,5.60
2023-05-20T14:49:32.672Z,6.07
2023-05-20T14:52:00.590Z,5.80
2023-05-20T14:54:28.451Z,6.20
2023-05-20T14:56:57.745Z,6.60
2023-05-20T14:59:25.797Z,5.93
2023-05-20T15:01:53.719Z,5.93
2023-05-20T15:04:21.652Z,6.20
2023-05-20T15:06:49.624Z,6.83
2023-05-20T15:09:17.701Z,6.53
2023-05-20T15:11:45.804Z,5.80
2023-05-20T15:14:15.299Z,5.70
2023-05-20T15:16:44.302Z,6.27
2023-05-20T15:19:13.328Z,6.23
2023-05-20T15:21:41.502Z,6.13
2023-05-20T15:24:09.467Z,5.90
2023-05-20T15:26:37.537Z,6.33
2023-05-20T15:29:05.601Z,7.67
2023-05-20T15:31:34.823Z,6.73
2023-05-20T15:34:02.779Z,7.13
2023-05-20T15:36:32.216Z,5.70
2023-05-20T15:39:00.214Z,5.60
2023-05-20T15:41:28.149Z,5.93
2023-05-20T15:43:56.097Z,6.13
2023-05-20T15:46:24.602Z,5.57
2023-05-20T15:48:56.011Z,5.60
2023-05-20T15:51:24.162Z,5.80
2023-05-20T15:53:52.103Z,7.50
2023-05-20T15:56:21.653Z,7.57
2023-05-20T15:58:49.767Z,6.47
2023-05-20T16:01:17.757Z,6.10
2023-05-20T16:03:45.744Z,6.70
2023-05-20T16:06:15.124Z,5.93
2023-05-20T16:08:43.007Z,6.43
2023-05-20T16:11:10.964Z,6.07
2023-05-20T16:13:38.875Z,6.43
2023-05-20T16:16:07.414Z,5.53
2023-05-20T16:18:35.370Z,5.83
2023-05-20T16:21:07.161Z,5.87
2023-05-20T16:23:36.424Z,5.67
2023-05-20T16:26:04.381Z,6.10
2023-05-20T16:28:32.288Z,6.00
2023-05-20T16:31:00.402Z,5.93
2023-05-20T16:33:28.321Z,5.97
2023-05-20T16:35:56.521Z,6.47
2023-05-20T16:38:24.447Z,5.87
2023-05-20T16:40:53.706Z,5.53
2023-05-20T16:43:21.636Z,6.33
2023-05-20T16:45:49.572Z,6.53
2023-05-20T16:48:17.558Z,6.43
2023-05-20T16:50:45.591Z,7.13
2023-05-20T16:53:15.032Z,6.50
2023-05-20T16:55:44.307Z,6.37
2023-05-20T16:58:13.566Z,6.00
2023-05-20T17:00:41.571Z,6.47
2023-05-20T17:03:09.586Z,6.50
2023-05-20T17:05:37.548Z,6.57
2023-05-20T17:08:05.968Z,6.27
2023-05-20T17:10:34.153Z,7.30
2023-05-20T17:13:02.227Z,5.73
2023-05-20T17:15:32.665Z,5.87
2023-05-20T17:18:00.666Z,6.47
2023-05-20T17:20:28.590Z,7.10
2023-05-20T17:22:56.584Z,6.27
2023-05-20T17:25:24.528Z,6.00
2023-05-20T17:27:52.643Z,6.93
2023-05-20T17:30:20.619Z,5.90
2023-05-20T17:32:52.324Z,6.03
2023-05-20T17:35:25.374Z,5.83
2023-05-20T17:37:53.672Z,7.43
2023-05-20T17:40:21.765Z,8.00
2023-05-20T17:42:50.925Z,5.53
2023-05-20T17:45:18.880Z,6.37
2023-05-20T17:47:46.806Z,6.10
2023-05-20T17:50:16.597Z,5.90
2023-05-20T17:52:44.520Z,6.87
2023-05-20T17:55:12.876Z,6.83
2023-05-20T17:57:40.795Z,6.07
2023-05-20T18:00:10.111Z,6.70
2023-05-20T18:02:38.780Z,6.47
2023-05-20T18:05:07.590Z,6.27
2023-05-20T18:07:37.309Z,6.63
2023-05-20T18:10:06.121Z,5.60
2023-05-20T18:12:34.065Z,5.80
2023-05-20T18:15:02.119Z,6.43
2023-05-20T18:17:30.071Z,6.30
2023-05-20T18:19:58.028Z,6.50
2023-05-20T18:22:26.995Z,6.67
2023-05-20T18:24:56.259Z,9.17
2023-05-20T18:27:24.169Z,7.17
2023-05-20T18:29:52.309Z,7.23
2023-05-20T18:32:22.148Z,6.53
2023-05-20T18:34:50.043Z,7.23
2023-05-20T18:37:18.010Z,6.17
2023-05-20T18:39:45.938Z,6.23
2023-05-20T18:42:15.729Z,6.47
2023-05-20T18:44:43.869Z,6.53
2023-05-20T18:47:12.088Z,7.10
2023-05-20T18:49:40.016Z,5.63
2023-05-20T18:52:08.520Z,5.93
2023-05-20T18:54:36.731Z,6.83
2023-05-20T18:57:05.428Z,8.30
2023-05-20T18:59:34.886Z,8.10
2023-05-20T19:02:02.791Z,6.80
2023-05-20T19:04:31.055Z,7.63
2023-05-20T19:06:59.023Z,8.13
2023-05-20T19:09:26.936Z,7.77
2023-05-20T19:11:58.792Z,8.33
2023-05-20T19:14:26.835Z,8.93
2023-05-20T19:16:56.275Z,7.80
2023-05-20T19:19:24.287Z,8.90
2023-05-20T19:21:52.318Z,7.17
2023-05-20T19:24:20.365Z,7.20
2023-05-20T19:26:48.281Z,9.27
2023-05-20T19:29:16.363Z,6.60
2023-05-20T19:31:44.669Z,7.00
2023-05-20T19:34:13.988Z,8.20
2023-05-20T19:36:42.821Z,6.67
2023-05-20T19:39:11.086Z,7.87
2023-05-20T19:41:39.283Z,7.60
2023-05-20T19:44:07.246Z,7.00
2023-05-20T19:46:35.720Z,7.53
2023-05-20T19:49:04.151Z,6.83
2023-05-20T19:51:33.420Z,7.87
2023-05-20T19:54:01.427Z,7.10
2023-05-20T19:56:29.516Z,7.60
2023-05-20T19:59:01.387Z,8.37
2023-05-20T20:01:29.476Z,7.80
2023-05-20T20:03:57.488Z,7.87
2023-05-20T20:06:25.490Z,7.53
2023-05-20T20:08:54.758Z,8.03
2023-05-20T20:11:23.644Z,8.87
2023-05-20T20:13:51.530Z,7.43
2023-05-20T20:16:19.597Z,8.63
2023-05-20T20:18:47.672Z,8.67
2023-05-20T20:21:15.632Z,9.23
2023-05-20T20:23:43.703Z,8.13
2023-05-20T20:26:13.717Z,8.10
2023-05-20T20:28:41.798Z,8.83
2023-05-20T20:31:09.807Z,8.57
2023-05-20T20:33:37.728Z,9.40
2023-05-20T20:36:06.276Z,8.27
2023-05-20T20:38:34.190Z,10.83
2023-05-20T20:41:03.648Z,8.30
2023-05-20T20:43:34.517Z,9.10
2023-05-20T20:46:02.569Z,8.60
2023-05-20T20:48:30.496Z,8.63
2023-05-20T20:50:59.001Z,9.33
2023-05-20T20:53:26.960Z,7.37
2023-05-20T20:55:56.855Z,8.17
2023-05-20T20:58:24.805Z,8.30
2023-05-20T21:00:54.121Z,8.00
2023-05-20T21:03:24.082Z,9.60
2023-05-20T21:05:52.080Z,10.07
2023-05-20T21:08:22.121Z,8.93
2023-05-20T21:10:50.070Z,10.57
2023-05-20T21:13:17.961Z,7.90
2023-05-20T21:15:46.374Z,9.37
2023-05-20T21:18:21.519Z,8.83
2023-05-20T21:20:49.620Z,9.63
2023-05-20T21:23:17.615Z,9.23
2023-05-20T21:25:45.729Z,8.37
2023-05-20T21:28:13.870Z,8.60
2023-05-20T21:30:41.826Z,8.70
2023-05-20T21:33:09.868Z,9.23
2023-05-20T21:35:39.181Z,9.73
2023-05-20T21:38:07.098Z,9.53
2023-05-20T21:40:35.049Z,8.93
2023-05-20T21:43:03.457Z,8.57
2023-05-20T21:45:31.384Z,8.73
2023-05-20T21:47:59.402Z,8.83
2023-05-20T21:50:27.336Z,8.93
2023-05-20T21:52:56.584Z,8.17
2023-05-20T21:55:24.569Z,10.10
2023-05-20T21:57:52.573Z,9.23
2023-05-20T22:00:20.612Z,8.70
2023-05-20T22:02:48.790Z,9.10
2023-05-20T22:05:17.257Z,9.17
2023-05-20T22:07:45.300Z,9.60
2023-05-20T22:10:17.312Z,10.53
2023-05-20T22:12:45.672Z,10.77
2023-05-20T22:15:13.690Z,9.20
2023-05-20T22:17:42.250Z,9.97
2023-05-20T22:20:11.597Z,8.67
2023-05-20T22:22:39.951Z,9.50
2023-05-20T22:25:08.608Z,10.53
2023-05-20T22:27:38.656Z,9.13
2023-05-20T22:30:08.240Z,8.70
2023-05-20T22:32:36.727Z,9.60
2023-05-20T22:35:04.910Z,8.97
2023-05-20T22:37:33.431Z,10.03
2023-05-20T22:40:01.468Z,8.47
2023-05-20T22:42:29.375Z,10.60
2023-05-20T22:44:58.646Z,8.83
2023-05-20T22:47:26.611Z,8.57
2023-05-20T22:49:54.707Z,8.63
2023-05-20T22:52:25.208Z,9.63
2023-05-20T22:54:53.192Z,9.40
2023-05-20T22:57:21.140Z,10.57
2023-05-20T22:59:49.069Z,9.60
2023-05-20T23:02:18.312Z,9.87
2023-05-20T23:04:46.295Z,8.67
2023-05-20T23:07:14.654Z,10.37
2023-05-20T23:09:42.618Z,10.83
2023-05-20T23:12:10.725Z,10.97
2023-05-20T23:14:38.617Z,8.77
2023-05-20T23:17:06.655Z,9.77
2023-05-20T23:19:35.978Z,9.50
2023-05-20T23:22:04.163Z,9.43
2023-05-20T23:24:32.106Z,9.90
2023-05-20T23:27:00.261Z,10.03
2023-05-20T23:29:28.583Z,9.77
2023-05-20T23:31:56.529Z,10.53
2023-05-20T23:34:24.467Z,9.50
2023-05-20T23:36:53.872Z,9.27
2023-05-20T23:39:22.103Z,10.23
2023-05-20T23:41:50.344Z,9.73
2023-05-20T23:44:18.294Z,9.60
2023-05-20T23:46:46.205Z,9.17
2023-05-20T23:49:14.136Z,9.77
2023-05-20T23:51:42.075Z,9.53
2023-05-20T23:54:14.629Z,10.80
2023-05-20T23:56:42.585Z,9.50
2023-05-20T23:59:10.503Z,10.83
